Imperial, NE

5:37 AM MDT on April 19, 2015 (GMT -0600)
Imperial Municipal | | Change Station
CLOSE
Current Station
Airport
Location: Imperial,
Elevation: 3274 ft
Nearby Weather Stations

Elev 3274 ft 40.51 °N, 101.62 °W | Updated 23 minutes ago

Overcast
Overcast
46 °F
Feels Like 38 °F
N
21
Wind Variable Wind from NNW
Gusts 31 mph

Today
High -- | Low -- °F
--% Chance of Precip.
Yesterday
High -- | Low -- °F
Precip. -- in
6:02 AM 7:29 PM
New Moon, 1% visible
Pressure 29.93 in
Visibility 10.0 miles
Clouds Mostly Cloudy 2000 ft
Mostly Cloudy 2700 ft
Overcast 5000 ft
Windchill 38 °F
Dew Point 41 °F
Humidity 83%
Rainfall 0.23 in
Snow Depth Not available.
UV 0 out of 12
Pollen 9.20 out of 12
Air Quality Not available.
Flu Activity Local Activity
SPECI KIML 191114Z AUTO 34018G27KT 10SM BKN020 BKN027 OVC050 08/05 A2993 RMK AO2 PK WND 35027/1111 RAE1055 P0000 T00780050 $

More Conditions Fewer Conditions

Pressure 29.93 in
Visibility 10.0 miles
Clouds Mostly Cloudy 2000 ft
Mostly Cloudy 2700 ft
Overcast 5000 ft
Windchill 38 °F
Dew Point 41 °F
Humidity 83%
Rainfall 0.23 in
Snow Depth Not available.
UV 0 out of 12
Pollen 9.20 out of 12
Air Quality Not available.
Flu Activity Local Activity
SPECI KIML 191114Z AUTO 34018G27KT 10SM BKN020 BKN027 OVC050 08/05 A2993 RMK AO2 PK WND 35027/1111 RAE1055 P0000 T00780050 $

More Conditions Fewer Conditions

Nowcast | as of 6:37 am CDT on April 19, 2015

At 630 am CDT Doppler radar indicated light rain from 28 miles northeast of Burwell to 9 miles south of Champion...moving southeast at 5 mph. Locations will be affected include... Broken Bow...Brady...Weissert...North Platte...Brady...Imperial... Hayes Center...Stockville...Sutherland...Grant and Comstock. A strong cold front is moving swiftly south producing wind gusts to 45 mph. The front will help push the rain south into Kansas between 10 am and noon this morning. Rainfall rates of up to 1/10 of an inch per hour can be expected until the front dries out the area. Heavy rainfall across the sandhills last night has caused some washouts of unimproved roads. Use caution traveling this morning.

×

10-Day Weather Forecast

Almanac

Astronomy

Apr. 19, 2015 Rise Set
Actual Time
Civil Twilight
Nautical Twilight
Astronomical Twilight
Moon
Length of Visible Light
Length of Day
Tomorrow will be .
, % of the Moon is Illuminated

Today's Extremes

State Highs State Lows

Community

WunderPhotos

Upload Photos

1,814,758 photos uploaded!

WunderBlogs® & News

Nearby

Air Quality

  Air Quality AQ Index Pollutant
Not available.

Snow Depth

Station Depth Elevation

Earthquake Activity

City Distance Mag. Time & Date
Minimum magnitude displayed is 2.5.

Coastal Water Temperatures

Place Temperature

Stations

Nearby Weather Stations

Station Location Temp. Windchill Dew Point Humidity Wind Precip. Elev Updated Type